createdAt,value
2019-05-09T00:01:23.722Z,99473.50
2019-05-09T00:03:53.813Z,99469.20
2019-05-09T00:06:23.967Z,99468.91
2019-05-09T00:08:53.267Z,99471.58
2019-05-09T00:11:21.814Z,99479.88
2019-05-09T00:13:50.317Z,99483.89
2019-05-09T00:16:18.837Z,99477.21
2019-05-09T00:18:47.249Z,99474.24
2019-05-09T00:21:17.354Z,99481.59
2019-05-09T00:23:45.774Z,99475.60
2019-05-09T00:26:14.197Z,99477.67
2019-05-09T00:28:44.603Z,99481.38
2019-05-09T00:31:23.956Z,99482.42
2019-05-09T00:33:54.204Z,99483.45
2019-05-09T00:36:23.210Z,99487.45
2019-05-09T00:38:53.704Z,99488.20
2019-05-09T00:41:23.937Z,99486.56
2019-05-09T00:43:54.408Z,99484.40
2019-05-09T00:46:24.457Z,99480.86
2019-05-09T00:49:00.552Z,99484.77
2019-05-09T00:51:29.115Z,99491.38
2019-05-09T00:53:57.544Z,99494.26
2019-05-09T00:56:26.022Z,99487.52
2019-05-09T00:58:54.482Z,99493.36
2019-05-09T01:01:24.037Z,99491.42
2019-05-09T01:03:53.532Z,99488.76
2019-05-09T01:06:23.936Z,99488.16
2019-05-09T01:08:53.906Z,99483.86
2019-05-09T01:11:24.194Z,99487.59
2019-05-09T01:13:54.321Z,99482.75
2019-05-09T01:16:24.104Z,99484.09
2019-05-09T01:18:59.188Z,99480.92
2019-05-09T01:21:27.610Z,99486.26
2019-05-09T01:23:56.033Z,99490.46
2019-05-09T01:26:24.500Z,99493.06
2019-05-09T01:28:53.953Z,99490.59
2019-05-09T01:31:24.081Z,99487.87
2019-05-09T01:33:54.607Z,99484.90
2019-05-09T01:36:23.562Z,99485.70
2019-05-09T01:38:53.995Z,99484.90
2019-05-09T01:41:29.792Z,99486.44
2019-05-09T01:43:53.628Z,99496.61
2019-05-09T01:46:23.606Z,99492.01
2019-05-09T01:48:53.980Z,99487.70
2019-05-09T01:51:23.350Z,99484.73
2019-05-09T01:53:53.636Z,99486.06
2019-05-09T01:56:23.479Z,99478.50
2019-05-09T02:02:33.852Z,99478.63
2019-05-09T02:05:04.157Z,99475.67
2019-05-09T02:07:33.258Z,99473.00
2019-05-09T02:10:03.401Z,99475.37
2019-05-09T02:12:33.895Z,99484.11
2019-05-09T02:15:13.136Z,99471.20
2019-05-09T02:18:00.703Z,99475.94
2019-05-09T02:20:24.201Z,99478.47
2019-05-09T02:22:54.303Z,99470.30
2019-05-09T02:25:24.245Z,99469.90
2019-05-09T02:27:55.115Z,99471.89
2019-05-09T02:30:25.365Z,99480.02
2019-05-09T02:32:54.749Z,99488.45
2019-05-09T02:35:23.630Z,99486.22
2019-05-09T02:37:52.053Z,99484.59
2019-05-09T02:40:20.746Z,99481.31
2019-05-09T02:42:49.363Z,99480.28
2019-05-09T02:45:19.443Z,99485.31
2019-05-09T02:47:49.017Z,99491.68
2019-05-09T02:50:19.515Z,99483.91
2019-05-09T02:52:48.811Z,99491.61
2019-05-09T02:55:18.418Z,99492.88
2019-05-09T02:57:49.129Z,99492.27
2019-05-09T03:00:39.494Z,99493.73
2019-05-09T03:03:10.631Z,99494.95
2019-05-09T03:05:39.082Z,99497.55
2019-05-09T03:08:09.016Z,99485.67
2019-05-09T03:10:38.174Z,99483.44
2019-05-09T03:13:09.116Z,99489.50
2019-05-09T03:15:39.432Z,99496.09
2019-05-09T03:18:08.964Z,99496.59
2019-05-09T03:20:39.511Z,99490.95
2019-05-09T03:23:09.172Z,99487.98
2019-05-09T03:25:40.975Z,99487.69
2019-05-09T03:28:28.581Z,99489.75
2019-05-09T03:30:59.339Z,99486.28
2019-05-09T03:33:29.631Z,99483.54
2019-05-09T03:35:58.299Z,99479.73
2019-05-09T03:38:28.418Z,99491.92
2019-05-09T03:40:58.051Z,99484.66
2019-05-09T03:43:27.552Z,99487.52
2019-05-09T03:46:14.070Z,99486.72
2019-05-09T03:48:47.708Z,99488.05
2019-05-09T03:51:18.228Z,99483.22
2019-05-09T03:53:48.246Z,99487.52
2019-05-09T03:56:27.394Z,99486.19
2019-05-09T03:58:57.858Z,99487.62
2019-05-09T04:01:28.081Z,99495.23
2019-05-09T04:03:58.433Z,99505.66
2019-05-09T04:06:28.227Z,99506.80
2019-05-09T04:08:58.522Z,99507.06
2019-05-09T04:11:27.679Z,99509.61
2019-05-09T04:13:58.625Z,99516.16
2019-05-09T04:16:27.672Z,99516.33
2019-05-09T04:18:58.154Z,99521.55
2019-05-09T04:21:27.963Z,99522.83
2019-05-09T04:23:58.450Z,99522.50
2019-05-09T04:26:32.187Z,99533.62
2019-05-09T04:29:00.616Z,99530.70
2019-05-09T04:31:29.110Z,99533.23
2019-05-09T04:33:57.839Z,99542.45
2019-05-09T04:36:41.211Z,99539.65
2019-05-09T04:39:21.516Z,99539.22
2019-05-09T04:41:42.774Z,99543.39
2019-05-09T04:44:19.247Z,99536.80
2019-05-09T04:46:48.061Z,99540.27
2019-05-09T04:49:18.535Z,99531.23
2019-05-09T04:51:47.925Z,99534.59
2019-05-09T04:54:17.760Z,99531.37
2019-05-09T04:56:47.517Z,99531.00
2019-05-09T04:59:17.913Z,99533.84
2019-05-09T05:01:48.632Z,99537.70
2019-05-09T05:04:18.123Z,99531.53
2019-05-09T05:06:47.775Z,99535.84
2019-05-09T05:09:20.504Z,99534.88
2019-05-09T05:11:49.049Z,99535.47
2019-05-09T05:14:22.909Z,99543.64
2019-05-09T05:16:58.171Z,99544.78
2019-05-09T05:19:25.671Z,99550.62
2019-05-09T05:21:58.277Z,99547.34
2019-05-09T05:24:31.935Z,99549.28
2019-05-09T05:27:00.675Z,99558.63
2019-05-09T05:29:29.110Z,99549.72
2019-05-09T05:31:59.422Z,99552.69
2019-05-09T05:34:31.933Z,99557.52
2019-05-09T05:37:00.363Z,99565.73
2019-05-09T05:39:29.010Z,99565.73
2019-05-09T05:41:58.461Z,99563.50
2019-05-09T05:44:28.350Z,99579.52
2019-05-09T05:47:04.937Z,99574.77
2019-05-09T05:49:33.362Z,99580.95
2019-05-09T05:52:02.181Z,99566.17
2019-05-09T05:54:30.767Z,99573.97
2019-05-09T05:56:59.580Z,99583.98
2019-05-09T05:59:28.750Z,99586.22
2019-05-09T06:01:58.515Z,99597.07
2019-05-09T06:04:27.629Z,99603.51
2019-05-09T06:06:58.631Z,99603.61
2019-05-09T06:09:28.012Z,99601.11
2019-05-09T06:11:59.366Z,99601.64
2019-05-09T06:14:28.598Z,99603.50
2019-05-09T06:16:58.727Z,99605.80
2019-05-09T06:19:28.666Z,99604.02
2019-05-09T06:21:57.571Z,99604.00
2019-05-09T06:24:29.699Z,99604.16
2019-05-09T06:26:58.663Z,99601.94
2019-05-09T06:29:28.582Z,99601.50
2019-05-09T06:31:58.423Z,99598.45
2019-05-09T06:34:27.899Z,99605.95
2019-05-09T06:36:58.574Z,99600.61
2019-05-09T06:39:28.519Z,99616.95
2019-05-09T06:41:57.500Z,99614.72
2019-05-09T06:44:37.499Z,99610.70
2019-05-09T06:47:08.282Z,99617.45
2019-05-09T06:49:38.700Z,99623.19
2019-05-09T06:52:08.700Z,99623.41
2019-05-09T06:54:41.334Z,99618.86
2019-05-09T06:57:08.033Z,99628.82
2019-05-09T06:59:38.179Z,99630.42
2019-05-09T07:02:08.606Z,99630.95
2019-05-09T07:04:41.498Z,99630.27
2019-05-09T07:07:23.793Z,99628.42
2019-05-09T07:09:58.594Z,99635.32
2019-05-09T07:12:27.443Z,99635.71
2019-05-09T07:14:57.951Z,99643.05
2019-05-09T07:17:31.760Z,99649.74
2019-05-09T07:19:58.861Z,99645.97
2019-05-09T07:22:43.485Z,99650.58
2019-05-09T07:25:18.469Z,99649.00
2019-05-09T07:27:48.280Z,99648.54
2019-05-09T07:30:34.475Z,99645.67
2019-05-09T07:33:19.661Z,99641.77
2019-05-09T07:35:48.681Z,99645.02
2019-05-09T07:38:18.761Z,99654.53
2019-05-09T07:40:47.870Z,99652.15
2019-05-09T07:43:17.989Z,99650.65
2019-05-09T07:46:08.876Z,99655.09
2019-05-09T07:48:38.373Z,99657.61
2019-05-09T07:51:07.864Z,99662.22
2019-05-09T07:53:38.054Z,99659.67
2019-05-09T07:56:07.891Z,99664.92
2019-05-09T07:58:37.694Z,99663.04
2019-05-09T08:01:08.641Z,99668.40
2019-05-09T08:03:38.449Z,99670.16
2019-05-09T08:06:08.810Z,99663.72
2019-05-09T08:08:38.496Z,99664.14
2019-05-09T08:11:08.800Z,99665.07
2019-05-09T08:13:39.190Z,99661.80
2019-05-09T08:16:12.408Z,99669.51
2019-05-09T08:18:38.030Z,99671.19
2019-05-09T08:21:08.410Z,99668.88
2019-05-09T08:23:37.981Z,99669.08
2019-05-09T08:26:08.794Z,99672.64
2019-05-09T08:28:38.945Z,99669.78
2019-05-09T08:31:08.225Z,99675.09
2019-05-09T08:33:38.072Z,99678.36
2019-05-09T08:36:08.707Z,99682.80
2019-05-09T08:38:38.986Z,99684.20
2019-05-09T08:41:09.335Z,99678.25
2019-05-09T08:43:39.181Z,99689.02
2019-05-09T08:46:08.086Z,99680.22
2019-05-09T08:48:37.839Z,99682.80
2019-05-09T08:51:09.017Z,99686.38
2019-05-09T08:53:38.227Z,99691.30
2019-05-09T08:56:08.964Z,99685.75
2019-05-09T08:58:38.175Z,99694.20
2019-05-09T09:01:09.728Z,99689.52
2019-05-09T09:03:37.833Z,99693.11
2019-05-09T09:06:08.345Z,99692.17
2019-05-09T09:08:38.014Z,99690.13
2019-05-09T09:11:08.641Z,99690.11
2019-05-09T09:13:37.927Z,99686.54
2019-05-09T09:16:18.008Z,99689.25
2019-05-09T09:18:38.777Z,99687.55
2019-05-09T09:21:08.129Z,99694.75
2019-05-09T09:23:43.928Z,99695.11
2019-05-09T09:26:08.125Z,99696.45
2019-05-09T09:28:37.983Z,99697.41
2019-05-09T09:31:08.200Z,99696.67
2019-05-09T09:33:37.785Z,99696.94
2019-05-09T09:36:08.719Z,99702.13
2019-05-09T09:38:37.572Z,99699.56
2019-05-09T09:41:11.402Z,99706.32
2019-05-09T09:43:39.861Z,99707.72
2019-05-09T09:46:14.333Z,99703.55
2019-05-09T09:48:39.051Z,99701.10
2019-05-09T09:51:08.144Z,99708.77
2019-05-09T09:53:38.447Z,99709.27
2019-05-09T09:56:08.642Z,99703.69
2019-05-09T09:58:38.004Z,99709.64
2019-05-09T10:01:23.704Z,99713.52
2019-05-09T10:03:53.764Z,99707.14
2019-05-09T10:06:22.228Z,99708.39
2019-05-09T10:08:50.690Z,99705.42
2019-05-09T10:11:19.127Z,99706.77
2019-05-09T10:13:48.432Z,99708.86
2019-05-09T10:16:34.848Z,99715.52
2019-05-09T10:19:10.882Z,99716.22
2019-05-09T10:21:40.994Z,99714.47
2019-05-09T10:24:09.431Z,99724.01
2019-05-09T10:26:39.117Z,99721.40
2019-05-09T10:29:07.929Z,99718.34
2019-05-09T10:31:39.033Z,99713.78
2019-05-09T10:34:06.903Z,99718.98
2019-05-09T10:36:35.462Z,99718.17
2019-05-09T10:39:08.167Z,99722.75
2019-05-09T10:41:37.624Z,99725.07
2019-05-09T10:44:08.486Z,99718.49
2019-05-09T10:46:56.825Z,99718.09
2019-05-09T10:49:18.588Z,99717.22
2019-05-09T10:51:48.545Z,99723.16
2019-05-09T10:54:18.515Z,99712.40
2019-05-09T10:56:48.723Z,99711.21
2019-05-09T10:59:18.269Z,99709.34
2019-05-09T11:01:49.436Z,99708.50
2019-05-09T11:04:18.055Z,99710.70
2019-05-09T11:06:46.498Z,99714.92
2019-05-09T11:09:15.125Z,99714.21
2019-05-09T11:11:43.961Z,99716.53
2019-05-09T11:14:27.854Z,99711.45
2019-05-09T11:16:46.506Z,99716.53
2019-05-09T11:19:13.069Z,99713.94
2019-05-09T11:21:41.507Z,99711.42
2019-05-09T11:24:09.973Z,99713.25
2019-05-09T11:26:39.930Z,99718.59
2019-05-09T11:29:08.726Z,99710.98
2019-05-09T11:31:38.482Z,99711.34
2019-05-09T11:34:08.836Z,99699.88
2019-05-09T11:36:38.202Z,99708.70
2019-05-09T11:39:10.969Z,99708.50
2019-05-09T11:41:39.716Z,99708.83
2019-05-09T11:44:08.656Z,99711.25
2019-05-09T11:46:38.270Z,99705.63
2019-05-09T11:49:08.380Z,99709.48
2019-05-09T11:51:37.050Z,99711.41
2019-05-09T11:54:05.468Z,99708.27
2019-05-09T11:56:33.923Z,99708.03
2019-05-09T11:59:02.360Z,99712.93
2019-05-09T12:01:32.422Z,99708.05
2019-05-09T12:04:01.515Z,99711.30
2019-05-09T12:06:29.935Z,99710.47
2019-05-09T12:09:01.828Z,99718.30
2019-05-09T12:11:30.324Z,99714.19
2019-05-09T12:13:59.095Z,99713.34
2019-05-09T12:16:28.088Z,99714.91
2019-05-09T12:18:58.437Z,99708.95
2019-05-09T12:21:28.180Z,99717.58
2019-05-09T12:23:58.083Z,99707.50
2019-05-09T12:26:29.097Z,99709.37
2019-05-09T12:28:57.983Z,99717.67
2019-05-09T12:31:28.761Z,99706.50
2019-05-09T12:33:59.278Z,99714.05
2019-05-09T12:36:28.590Z,99715.61
2019-05-09T12:38:59.186Z,99709.03
2019-05-09T12:41:31.371Z,99711.22
2019-05-09T12:43:57.705Z,99708.03
2019-05-09T12:46:28.180Z,99711.31
2019-05-09T12:48:59.194Z,99710.75
2019-05-09T12:51:28.262Z,99708.00
2019-05-09T12:53:57.944Z,99713.49
2019-05-09T12:56:28.421Z,99713.13
2019-05-09T12:58:57.843Z,99708.59
2019-05-09T13:01:29.547Z,99710.45
2019-05-09T13:03:58.478Z,99715.55
2019-05-09T13:06:29.273Z,99710.33
2019-05-09T13:08:58.659Z,99713.02
2019-05-09T13:11:28.223Z,99720.78
2019-05-09T13:13:56.887Z,99723.33
2019-05-09T13:16:42.792Z,99711.80
2019-05-09T13:19:03.748Z,99707.83
2019-05-09T13:21:33.053Z,99719.13
2019-05-09T13:24:02.230Z,99714.16
2019-05-09T13:26:30.953Z,99719.16
2019-05-09T13:28:59.704Z,99716.77
2019-05-09T13:31:29.572Z,99714.91
2019-05-09T13:33:58.554Z,99722.77
2019-05-09T13:36:28.470Z,99717.94
2019-05-09T13:39:04.176Z,99722.06
2019-05-09T13:41:27.793Z,99733.47
2019-05-09T13:43:59.335Z,99727.53
2019-05-09T13:46:28.299Z,99729.17
2019-05-09T13:49:08.174Z,99728.02
2019-05-09T13:51:26.711Z,99719.66
2019-05-09T13:53:55.362Z,99717.98
2019-05-09T13:56:24.255Z,99710.48
2019-05-09T13:58:52.807Z,99714.52
2019-05-09T14:01:21.363Z,99722.68
2019-05-09T14:03:49.859Z,99717.72
2019-05-09T14:06:18.257Z,99715.06
2019-05-09T14:08:49.034Z,99718.95
2019-05-09T14:11:19.225Z,99718.70
2019-05-09T14:13:48.706Z,99728.41
2019-05-09T14:16:22.044Z,99737.55
2019-05-09T14:18:48.617Z,99730.84
2019-05-09T14:21:21.517Z,99728.16
2019-05-09T14:24:01.171Z,99733.64
2019-05-09T14:26:18.140Z,99735.49
2019-05-09T14:28:48.895Z,99740.97
2019-05-09T14:31:18.572Z,99733.91
2019-05-09T14:33:47.767Z,99732.05
2019-05-09T14:36:16.358Z,99728.48
2019-05-09T14:38:44.898Z,99726.73
2019-05-09T14:41:13.361Z,99731.50
2019-05-09T14:43:41.873Z,99727.06
2019-05-09T14:46:10.466Z,99727.41
2019-05-09T17:48:18.415Z,99724.50
2019-05-09T17:50:47.186Z,99724.50
2019-05-09T17:53:17.997Z,99786.56
2019-05-09T17:55:47.762Z,99789.95
2019-05-09T17:58:27.106Z,99787.66
2019-05-09T18:00:48.367Z,99794.84
2019-05-09T18:03:18.227Z,99794.45
2019-05-09T18:05:48.645Z,99799.17
2019-05-09T18:08:18.755Z,99804.95
2019-05-09T18:10:48.500Z,99805.89
2019-05-09T18:13:23.651Z,99807.89
2019-05-09T18:15:48.392Z,99818.58
2019-05-09T18:18:18.472Z,99823.05
2019-05-09T18:20:47.151Z,99822.61
2019-05-09T18:23:17.607Z,99827.89
2019-05-09T18:25:45.974Z,99825.33
2019-05-09T18:28:17.296Z,99829.78
2019-05-09T18:30:47.662Z,99836.69
2019-05-09T18:33:22.930Z,99833.06
2019-05-09T18:35:51.495Z,99830.74
2019-05-09T18:38:27.911Z,99827.42
2019-05-09T18:40:57.963Z,99826.77
2019-05-09T18:43:27.429Z,99832.32
2019-05-09T18:45:57.778Z,99835.98
2019-05-09T18:48:27.818Z,99844.19
2019-05-09T18:50:56.659Z,99840.89
2019-05-09T18:53:25.254Z,99840.52
2019-05-09T18:55:53.767Z,99839.88
2019-05-09T18:58:22.207Z,99840.84
2019-05-09T19:00:51.178Z,99849.87
2019-05-09T19:03:19.689Z,99846.50
2019-05-09T19:05:48.108Z,99854.47
2019-05-09T19:08:16.542Z,99850.34
2019-05-09T19:10:45.270Z,99858.63
2019-05-09T19:13:13.732Z,99854.77
2019-05-09T19:15:43.816Z,99864.66
2019-05-09T19:18:13.976Z,99861.10
2019-05-09T19:20:50.218Z,99866.95
2019-05-09T19:23:18.929Z,99871.17
2019-05-09T19:25:47.368Z,99873.72
2019-05-09T19:28:15.782Z,99872.27
2019-05-09T19:30:44.275Z,99874.33
2019-05-09T19:33:12.665Z,99875.05
2019-05-09T19:35:41.542Z,99873.59
2019-05-09T19:38:09.988Z,99873.48
2019-05-09T19:40:38.566Z,99870.17
2019-05-09T19:43:06.994Z,99873.25
2019-05-09T19:45:35.668Z,99883.12
2019-05-09T19:48:04.094Z,99884.67
2019-05-09T19:50:32.796Z,99887.53
2019-05-09T19:53:01.533Z,99884.19
2019-05-09T19:55:29.957Z,99891.61
2019-05-09T19:57:58.386Z,99889.94
2019-05-09T20:00:27.181Z,99887.93
2019-05-09T20:02:55.608Z,99889.44
2019-05-09T20:05:24.127Z,99892.00
2019-05-09T20:07:52.604Z,99890.32
2019-05-09T20:10:22.709Z,99890.73
2019-05-09T20:13:09.064Z,99898.66
2019-05-09T20:15:37.474Z,99903.45
2019-05-09T20:18:05.911Z,99898.53
2019-05-09T20:20:34.376Z,99903.31
2019-05-09T20:23:02.782Z,99902.43
2019-05-09T20:25:31.198Z,99903.48
2019-05-09T20:28:00.558Z,99911.23
2019-05-09T20:30:28.964Z,99910.94
2019-05-09T20:32:57.376Z,99909.59
2019-05-09T20:35:26.023Z,99917.89
2019-05-09T20:37:54.628Z,99917.06
2019-05-09T20:40:23.198Z,99912.23
2019-05-09T20:42:51.849Z,99912.73
2019-05-09T20:45:20.457Z,99920.80
2019-05-09T20:47:49.202Z,99919.45
2019-05-09T20:50:17.908Z,99921.84
2019-05-09T20:52:46.508Z,99929.89
2019-05-09T20:55:15.545Z,99917.52
2019-05-09T20:57:44.374Z,99930.94
2019-05-09T21:00:13.331Z,99932.87
2019-05-09T21:02:42.296Z,99934.00
2019-05-09T21:05:11.153Z,99932.12
2019-05-09T21:07:39.760Z,99939.12
2019-05-09T21:10:08.747Z,99940.75
2019-05-09T21:12:37.359Z,99946.72
2019-05-09T21:15:08.444Z,99949.70
2019-05-09T21:17:37.331Z,99951.62
2019-05-09T21:20:09.310Z,99947.30
2019-05-09T21:22:37.161Z,99946.26
2019-05-09T21:25:07.406Z,99946.84
2019-05-09T21:27:36.029Z,99951.17
2019-05-09T21:30:10.509Z,99949.83
2019-05-09T21:32:39.120Z,99949.53
2019-05-09T21:35:08.106Z,99946.84
2019-05-09T21:37:36.559Z,99946.63
2019-05-09T21:40:08.736Z,99952.80
2019-05-09T21:42:37.754Z,99952.80
2019-05-09T21:45:09.548Z,99956.53
2019-05-09T21:47:37.960Z,99956.78
2019-05-09T21:50:07.247Z,99958.34
2019-05-09T21:52:35.669Z,99958.88
2019-05-09T21:55:05.084Z,99962.61
2019-05-09T21:57:33.541Z,99967.89
2019-05-09T22:00:02.183Z,99969.09
2019-05-09T22:02:30.746Z,99964.42
2019-05-09T22:04:59.302Z,99965.09
2019-05-09T22:07:27.793Z,99971.66
2019-05-09T22:09:56.211Z,99972.86
2019-05-09T22:12:24.909Z,99979.13
2019-05-09T22:14:53.350Z,99977.94
2019-05-09T22:17:38.461Z,99979.44
2019-05-09T22:20:12.077Z,99978.84
2019-05-09T22:22:40.813Z,99983.94
2019-05-09T22:25:09.970Z,99978.49
2019-05-09T22:27:38.637Z,99984.39
2019-05-09T22:30:10.578Z,99987.38
2019-05-09T22:32:38.309Z,99980.58
2019-05-09T22:35:07.634Z,99977.09
2019-05-09T22:37:36.061Z,99986.39
2019-05-09T22:40:07.695Z,99980.22
2019-05-09T22:42:36.177Z,99979.63
2019-05-09T22:45:09.518Z,99987.88
2019-05-09T22:47:38.180Z,99987.23
2019-05-09T22:50:07.536Z,99983.36
2019-05-09T22:52:35.961Z,99981.86
2019-05-09T22:55:05.466Z,99990.35
2019-05-09T22:57:33.889Z,99989.19
2019-05-09T23:00:02.746Z,99989.64
2019-05-09T23:02:31.536Z,99988.45
2019-05-09T23:05:00.015Z,99992.47
2019-05-09T23:07:28.494Z,99996.92
2019-05-09T23:09:57.194Z,99998.77
2019-05-09T23:12:25.624Z,99997.73
2019-05-09T23:14:54.056Z,100000.20
2019-05-09T23:17:22.517Z,99995.05
2019-05-09T23:19:50.973Z,100002.29
2019-05-09T23:22:20.068Z,99998.56
2019-05-09T23:24:48.885Z,100007.20
2019-05-09T23:27:19.196Z,100003.48
2019-05-09T23:29:47.686Z,100004.08
2019-05-09T23:32:20.744Z,99999.52
2019-05-09T23:34:49.239Z,100003.34
2019-05-09T23:37:17.683Z,100002.30
2019-05-09T23:39:53.364Z,100003.40
2019-05-09T23:42:21.756Z,99997.80
2019-05-09T23:44:50.175Z,99988.72
2019-05-09T23:47:18.640Z,99997.36
2019-05-09T23:49:47.088Z,99996.02
2019-05-09T23:52:15.574Z,99994.37
2019-05-09T23:55:02.066Z,99994.08
2019-05-09T23:57:48.509Z,99988.12
